sensor_id;sensor_type;location;lat;lon;timestamp;P1;durP1;ratioP1;P2;durP2;ratioP2
39522;SDS011;25202;51.216;6.806;2024-01-30T00:00:43;5.43;;;3.88;;
39522;SDS011;25202;51.216;6.806;2024-01-30T00:03:08;5.80;;;4.07;;
39522;SDS011;25202;51.216;6.806;2024-01-30T00:05:34;7.30;;;3.97;;
39522;SDS011;25202;51.216;6.806;2024-01-30T00:07:59;7.22;;;4.07;;
39522;SDS011;25202;51.216;6.806;2024-01-30T00:10:25;6.18;;;4.20;;
39522;SDS011;25202;51.216;6.806;2024-01-30T00:12:50;6.07;;;3.90;;
39522;SDS011;25202;51.216;6.806;2024-01-30T00:15:16;6.28;;;3.95;;
39522;SDS011;25202;51.216;6.806;2024-01-30T00:17:42;6.35;;;3.83;;
39522;SDS011;25202;51.216;6.806;2024-01-30T00:20:08;7.55;;;4.20;;
39522;SDS011;25202;51.216;6.806;2024-01-30T00:22:34;6.45;;;4.20;;
39522;SDS011;25202;51.216;6.806;2024-01-30T00:25:00;5.32;;;3.78;;
39522;SDS011;25202;51.216;6.806;2024-01-30T00:27:26;6.13;;;4.15;;
39522;SDS011;25202;51.216;6.806;2024-01-30T00:29:52;5.40;;;3.92;;
39522;SDS011;25202;51.216;6.806;2024-01-30T00:32:18;7.47;;;4.00;;
39522;SDS011;25202;51.216;6.806;2024-01-30T00:34:44;6.93;;;4.18;;
39522;SDS011;25202;51.216;6.806;2024-01-30T00:37:10;6.13;;;3.88;;
39522;SDS011;25202;51.216;6.806;2024-01-30T00:39:35;5.32;;;3.97;;
39522;SDS011;25202;51.216;6.806;2024-01-30T00:42:01;6.38;;;4.60;;
39522;SDS011;25202;51.216;6.806;2024-01-30T00:44:26;6.90;;;4.28;;
39522;SDS011;25202;51.216;6.806;2024-01-30T00:46:52;6.40;;;4.18;;
39522;SDS011;25202;51.216;6.806;2024-01-30T00:49:17;5.97;;;3.83;;
39522;SDS011;25202;51.216;6.806;2024-01-30T00:51:43;6.63;;;3.83;;
39522;SDS011;25202;51.216;6.806;2024-01-30T00:54:08;5.72;;;3.78;;
39522;SDS011;25202;51.216;6.806;2024-01-30T00:56:34;6.95;;;4.25;;
39522;SDS011;25202;51.216;6.806;2024-01-30T00:58:59;6.03;;;3.90;;
39522;SDS011;25202;51.216;6.806;2024-01-30T01:01:25;5.80;;;3.78;;
39522;SDS011;25202;51.216;6.806;2024-01-30T01:03:50;6.25;;;4.15;;
39522;SDS011;25202;51.216;6.806;2024-01-30T01:06:16;6.40;;;4.03;;
39522;SDS011;25202;51.216;6.806;2024-01-30T01:08:41;5.47;;;3.95;;
39522;SDS011;25202;51.216;6.806;2024-01-30T01:11:07;6.88;;;3.78;;
39522;SDS011;25202;51.216;6.806;2024-01-30T01:13:32;5.45;;;3.78;;
39522;SDS011;25202;51.216;6.806;2024-01-30T01:16:00;6.82;;;3.83;;
39522;SDS011;25202;51.216;6.806;2024-01-30T01:18:25;5.05;;;3.88;;
39522;SDS011;25202;51.216;6.806;2024-01-30T01:20:52;6.10;;;4.25;;
39522;SDS011;25202;51.216;6.806;2024-01-30T01:23:17;6.60;;;4.10;;
39522;SDS011;25202;51.216;6.806;2024-01-30T01:25:43;5.75;;;3.50;;
39522;SDS011;25202;51.216;6.806;2024-01-30T01:28:09;6.60;;;4.40;;
39522;SDS011;25202;51.216;6.806;2024-01-30T01:30:35;5.15;;;3.50;;
39522;SDS011;25202;51.216;6.806;2024-01-30T01:33:00;5.38;;;3.65;;
39522;SDS011;25202;51.216;6.806;2024-01-30T01:35:27;5.60;;;3.72;;
39522;SDS011;25202;51.216;6.806;2024-01-30T01:37:53;6.43;;;4.13;;
39522;SDS011;25202;51.216;6.806;2024-01-30T01:40:23;5.43;;;4.00;;
39522;SDS011;25202;51.216;6.806;2024-01-30T01:42:50;6.20;;;3.95;;
39522;SDS011;25202;51.216;6.806;2024-01-30T01:45:16;6.97;;;4.15;;
39522;SDS011;25202;51.216;6.806;2024-01-30T01:47:42;5.28;;;3.72;;
39522;SDS011;25202;51.216;6.806;2024-01-30T01:50:08;5.53;;;3.85;;
39522;SDS011;25202;51.216;6.806;2024-01-30T01:52:33;5.93;;;4.00;;
39522;SDS011;25202;51.216;6.806;2024-01-30T01:54:59;5.78;;;3.80;;
39522;SDS011;25202;51.216;6.806;2024-01-30T01:57:25;5.35;;;3.83;;
39522;SDS011;25202;51.216;6.806;2024-01-30T01:59:51;5.90;;;3.50;;
39522;SDS011;25202;51.216;6.806;2024-01-30T02:02:17;5.78;;;3.40;;
39522;SDS011;25202;51.216;6.806;2024-01-30T02:04:43;7.85;;;3.97;;
39522;SDS011;25202;51.216;6.806;2024-01-30T02:07:09;5.28;;;3.42;;
39522;SDS011;25202;51.216;6.806;2024-01-30T02:09:34;6.30;;;3.92;;
39522;SDS011;25202;51.216;6.806;2024-01-30T02:12:00;5.40;;;3.78;;
39522;SDS011;25202;51.216;6.806;2024-01-30T02:14:25;6.75;;;3.97;;
39522;SDS011;25202;51.216;6.806;2024-01-30T02:16:51;5.30;;;3.55;;
39522;SDS011;25202;51.216;6.806;2024-01-30T02:19:17;6.68;;;4.15;;
39522;SDS011;25202;51.216;6.806;2024-01-30T02:21:42;5.13;;;3.95;;
39522;SDS011;25202;51.216;6.806;2024-01-30T02:24:08;6.15;;;3.72;;
39522;SDS011;25202;51.216;6.806;2024-01-30T02:26:34;4.78;;;3.70;;
39522;SDS011;25202;51.216;6.806;2024-01-30T02:29:00;5.18;;;3.58;;
39522;SDS011;25202;51.216;6.806;2024-01-30T02:31:25;5.20;;;3.78;;
39522;SDS011;25202;51.216;6.806;2024-01-30T02:33:51;6.30;;;3.67;;
39522;SDS011;25202;51.216;6.806;2024-01-30T02:36:17;5.72;;;3.95;;
39522;SDS011;25202;51.216;6.806;2024-01-30T02:38:42;4.13;;;3.22;;
39522;SDS011;25202;51.216;6.806;2024-01-30T02:41:08;6.57;;;4.00;;
39522;SDS011;25202;51.216;6.806;2024-01-30T02:43:33;7.60;;;4.20;;
39522;SDS011;25202;51.216;6.806;2024-01-30T02:45:59;4.75;;;3.60;;
39522;SDS011;25202;51.216;6.806;2024-01-30T02:48:26;6.20;;;3.72;;
39522;SDS011;25202;51.216;6.806;2024-01-30T02:50:51;6.65;;;3.72;;
39522;SDS011;25202;51.216;6.806;2024-01-30T02:53:17;4.78;;;3.72;;
39522;SDS011;25202;51.216;6.806;2024-01-30T02:55:42;6.68;;;3.92;;
39522;SDS011;25202;51.216;6.806;2024-01-30T02:58:08;5.80;;;3.40;;
39522;SDS011;25202;51.216;6.806;2024-01-30T03:00:34;5.68;;;3.85;;
39522;SDS011;25202;51.216;6.806;2024-01-30T03:02:59;5.32;;;3.85;;
39522;SDS011;25202;51.216;6.806;2024-01-30T03:05:25;5.68;;;3.80;;
39522;SDS011;25202;51.216;6.806;2024-01-30T03:07:50;6.20;;;3.58;;
39522;SDS011;25202;51.216;6.806;2024-01-30T03:10:16;4.75;;;3.65;;
39522;SDS011;25202;51.216;6.806;2024-01-30T03:12:41;5.20;;;3.75;;
39522;SDS011;25202;51.216;6.806;2024-01-30T03:15:07;4.68;;;3.28;;
39522;SDS011;25202;51.216;6.806;2024-01-30T03:17:34;4.88;;;3.38;;
39522;SDS011;25202;51.216;6.806;2024-01-30T03:20:02;4.93;;;3.42;;
39522;SDS011;25202;51.216;6.806;2024-01-30T03:22:28;6.32;;;3.75;;
39522;SDS011;25202;51.216;6.806;2024-01-30T03:24:54;4.80;;;3.38;;
39522;SDS011;25202;51.216;6.806;2024-01-30T03:27:20;4.75;;;3.50;;
39522;SDS011;25202;51.216;6.806;2024-01-30T03:29:45;6.03;;;3.67;;
39522;SDS011;25202;51.216;6.806;2024-01-30T03:32:11;4.80;;;3.65;;
39522;SDS011;25202;51.216;6.806;2024-01-30T03:34:36;5.78;;;3.90;;
39522;SDS011;25202;51.216;6.806;2024-01-30T03:37:02;4.97;;;3.60;;
39522;SDS011;25202;51.216;6.806;2024-01-30T03:39:27;4.85;;;3.40;;
39522;SDS011;25202;51.216;6.806;2024-01-30T03:41:53;6.05;;;3.65;;
39522;SDS011;25202;51.216;6.806;2024-01-30T03:44:18;4.75;;;3.45;;
39522;SDS011;25202;51.216;6.806;2024-01-30T03:46:44;5.40;;;3.58;;
39522;SDS011;25202;51.216;6.806;2024-01-30T03:49:09;6.00;;;4.03;;
39522;SDS011;25202;51.216;6.806;2024-01-30T03:51:35;4.95;;;3.30;;
39522;SDS011;25202;51.216;6.806;2024-01-30T03:54:00;5.28;;;3.40;;
39522;SDS011;25202;51.216;6.806;2024-01-30T03:56:26;3.90;;;3.30;;
39522;SDS011;25202;51.216;6.806;2024-01-30T03:58:51;5.70;;;3.35;;
39522;SDS011;25202;51.216;6.806;2024-01-30T04:01:17;4.70;;;3.55;;
39522;SDS011;25202;51.216;6.806;2024-01-30T04:03:43;4.72;;;3.45;;
39522;SDS011;25202;51.216;6.806;2024-01-30T04:06:09;4.65;;;3.35;;
39522;SDS011;25202;51.216;6.806;2024-01-30T04:08:35;4.32;;;3.60;;
39522;SDS011;25202;51.216;6.806;2024-01-30T04:11:04;4.60;;;3.40;;
39522;SDS011;25202;51.216;6.806;2024-01-30T04:13:34;4.00;;;3.35;;
39522;SDS011;25202;51.216;6.806;2024-01-30T04:16:01;6.45;;;3.53;;
39522;SDS011;25202;51.216;6.806;2024-01-30T04:18:27;6.00;;;3.50;;
39522;SDS011;25202;51.216;6.806;2024-01-30T04:20:53;4.55;;;3.35;;
39522;SDS011;25202;51.216;6.806;2024-01-30T04:23:19;4.65;;;3.50;;
39522;SDS011;25202;51.216;6.806;2024-01-30T04:25:44;6.07;;;3.65;;
39522;SDS011;25202;51.216;6.806;2024-01-30T04:28:10;4.65;;;3.22;;
39522;SDS011;25202;51.216;6.806;2024-01-30T04:30:38;5.55;;;3.53;;
39522;SDS011;25202;51.216;6.806;2024-01-30T04:33:04;5.78;;;4.00;;
39522;SDS011;25202;51.216;6.806;2024-01-30T04:35:30;4.93;;;3.50;;
39522;SDS011;25202;51.216;6.806;2024-01-30T04:37:55;4.53;;;3.17;;
39522;SDS011;25202;51.216;6.806;2024-01-30T04:40:21;5.05;;;3.35;;
39522;SDS011;25202;51.216;6.806;2024-01-30T04:42:46;4.82;;;3.30;;
39522;SDS011;25202;51.216;6.806;2024-01-30T04:45:12;5.28;;;3.47;;
39522;SDS011;25202;51.216;6.806;2024-01-30T04:47:37;6.75;;;3.42;;
39522;SDS011;25202;51.216;6.806;2024-01-30T04:50:04;5.15;;;3.63;;
39522;SDS011;25202;51.216;6.806;2024-01-30T04:52:31;4.75;;;3.22;;
39522;SDS011;25202;51.216;6.806;2024-01-30T04:54:57;5.20;;;3.58;;
39522;SDS011;25202;51.216;6.806;2024-01-30T04:57:22;4.45;;;3.53;;
39522;SDS011;25202;51.216;6.806;2024-01-30T04:59:48;4.97;;;3.22;;
39522;SDS011;25202;51.216;6.806;2024-01-30T05:02:14;4.53;;;3.45;;
39522;SDS011;25202;51.216;6.806;2024-01-30T05:04:40;4.68;;;3.40;;
39522;SDS011;25202;51.216;6.806;2024-01-30T05:07:06;4.60;;;3.50;;
39522;SDS011;25202;51.216;6.806;2024-01-30T05:09:31;3.70;;;3.15;;
39522;SDS011;25202;51.216;6.806;2024-01-30T05:11:57;4.50;;;3.17;;
39522;SDS011;25202;51.216;6.806;2024-01-30T05:14:23;4.78;;;3.38;;
39522;SDS011;25202;51.216;6.806;2024-01-30T05:16:49;4.22;;;3.22;;
39522;SDS011;25202;51.216;6.806;2024-01-30T05:19:15;5.30;;;3.50;;
39522;SDS011;25202;51.216;6.806;2024-01-30T05:21:41;4.63;;;3.58;;
39522;SDS011;25202;51.216;6.806;2024-01-30T05:24:06;6.13;;;3.60;;
39522;SDS011;25202;51.216;6.806;2024-01-30T05:26:32;4.18;;;3.38;;
39522;SDS011;25202;51.216;6.806;2024-01-30T05:28:58;4.10;;;3.15;;
39522;SDS011;25202;51.216;6.806;2024-01-30T05:31:23;4.90;;;3.38;;
39522;SDS011;25202;51.216;6.806;2024-01-30T05:33:51;4.75;;;3.22;;
39522;SDS011;25202;51.216;6.806;2024-01-30T05:36:16;3.53;;;3.03;;
39522;SDS011;25202;51.216;6.806;2024-01-30T05:38:42;5.22;;;3.25;;
39522;SDS011;25202;51.216;6.806;2024-01-30T05:41:08;5.35;;;3.63;;
39522;SDS011;25202;51.216;6.806;2024-01-30T05:43:33;4.10;;;3.38;;
39522;SDS011;25202;51.216;6.806;2024-01-30T05:45:59;4.97;;;3.20;;
39522;SDS011;25202;51.216;6.806;2024-01-30T05:48:25;5.18;;;3.83;;
39522;SDS011;25202;51.216;6.806;2024-01-30T05:50:50;5.05;;;3.20;;
39522;SDS011;25202;51.216;6.806;2024-01-30T05:53:16;4.75;;;3.25;;
39522;SDS011;25202;51.216;6.806;2024-01-30T05:55:41;4.38;;;3.15;;
39522;SDS011;25202;51.216;6.806;2024-01-30T05:58:07;6.22;;;3.33;;
39522;SDS011;25202;51.216;6.806;2024-01-30T06:00:32;5.13;;;3.33;;
39522;SDS011;25202;51.216;6.806;2024-01-30T06:02:58;7.20;;;3.20;;
39522;SDS011;25202;51.216;6.806;2024-01-30T06:05:23;3.90;;;3.03;;
39522;SDS011;25202;51.216;6.806;2024-01-30T06:07:49;4.32;;;3.15;;
39522;SDS011;25202;51.216;6.806;2024-01-30T06:10:14;4.75;;;3.40;;
39522;SDS011;25202;51.216;6.806;2024-01-30T06:12:40;5.93;;;3.75;;
39522;SDS011;25202;51.216;6.806;2024-01-30T06:15:06;4.38;;;3.35;;
39522;SDS011;25202;51.216;6.806;2024-01-30T06:17:32;4.45;;;3.20;;
39522;SDS011;25202;51.216;6.806;2024-01-30T06:19:58;4.70;;;3.20;;
39522;SDS011;25202;51.216;6.806;2024-01-30T06:22:23;4.63;;;3.58;;
39522;SDS011;25202;51.216;6.806;2024-01-30T06:24:49;4.68;;;3.45;;
39522;SDS011;25202;51.216;6.806;2024-01-30T06:27:14;4.28;;;3.55;;
39522;SDS011;25202;51.216;6.806;2024-01-30T06:29:40;4.15;;;3.17;;
39522;SDS011;25202;51.216;6.806;2024-01-30T06:32:06;5.30;;;3.55;;
39522;SDS011;25202;51.216;6.806;2024-01-30T06:34:32;4.95;;;3.42;;
39522;SDS011;25202;51.216;6.806;2024-01-30T06:36:57;5.05;;;3.20;;
39522;SDS011;25202;51.216;6.806;2024-01-30T06:39:23;3.95;;;2.95;;
39522;SDS011;25202;51.216;6.806;2024-01-30T06:41:48;4.22;;;3.10;;
39522;SDS011;25202;51.216;6.806;2024-01-30T06:44:14;3.63;;;2.95;;
39522;SDS011;25202;51.216;6.806;2024-01-30T06:46:40;5.30;;;3.50;;
39522;SDS011;25202;51.216;6.806;2024-01-30T06:49:05;5.00;;;3.50;;
39522;SDS011;25202;51.216;6.806;2024-01-30T06:51:31;4.30;;;3.50;;
39522;SDS011;25202;51.216;6.806;2024-01-30T06:53:56;4.07;;;2.97;;
39522;SDS011;25202;51.216;6.806;2024-01-30T06:56:22;4.47;;;3.35;;
39522;SDS011;25202;51.216;6.806;2024-01-30T06:58:48;4.05;;;3.28;;
39522;SDS011;25202;51.216;6.806;2024-01-30T07:01:14;4.80;;;3.33;;
39522;SDS011;25202;51.216;6.806;2024-01-30T07:03:40;3.92;;;3.20;;
39522;SDS011;25202;51.216;6.806;2024-01-30T07:06:05;3.85;;;3.30;;
39522;SDS011;25202;51.216;6.806;2024-01-30T07:08:31;4.72;;;3.55;;
39522;SDS011;25202;51.216;6.806;2024-01-30T07:10:56;5.07;;;3.35;;
39522;SDS011;25202;51.216;6.806;2024-01-30T07:13:22;5.43;;;3.58;;
39522;SDS011;25202;51.216;6.806;2024-01-30T07:15:47;4.78;;;3.42;;
39522;SDS011;25202;51.216;6.806;2024-01-30T07:18:13;4.70;;;3.30;;
39522;SDS011;25202;51.216;6.806;2024-01-30T07:20:39;3.50;;;2.75;;
39522;SDS011;25202;51.216;6.806;2024-01-30T07:23:15;5.78;;;3.38;;
39522;SDS011;25202;51.216;6.806;2024-01-30T07:25:45;5.13;;;3.40;;
39522;SDS011;25202;51.216;6.806;2024-01-30T07:28:11;4.75;;;3.65;;
39522;SDS011;25202;51.216;6.806;2024-01-30T07:30:41;3.88;;;3.20;;
39522;SDS011;25202;51.216;6.806;2024-01-30T07:33:07;4.70;;;3.40;;
39522;SDS011;25202;51.216;6.806;2024-01-30T07:35:33;4.70;;;3.45;;
39522;SDS011;25202;51.216;6.806;2024-01-30T07:37:59;3.83;;;3.10;;
39522;SDS011;25202;51.216;6.806;2024-01-30T07:40:25;5.25;;;3.10;;
39522;SDS011;25202;51.216;6.806;2024-01-30T07:42:50;5.15;;;3.08;;
39522;SDS011;25202;51.216;6.806;2024-01-30T07:45:16;4.95;;;3.38;;
39522;SDS011;25202;51.216;6.806;2024-01-30T07:47:42;4.70;;;3.30;;
39522;SDS011;25202;51.216;6.806;2024-01-30T07:50:08;5.32;;;3.00;;
39522;SDS011;25202;51.216;6.806;2024-01-30T07:52:34;4.30;;;3.28;;
39522;SDS011;25202;51.216;6.806;2024-01-30T07:55:00;4.25;;;3.17;;
39522;SDS011;25202;51.216;6.806;2024-01-30T07:57:25;3.92;;;3.20;;
39522;SDS011;25202;51.216;6.806;2024-01-30T07:59:51;4.50;;;3.10;;
39522;SDS011;25202;51.216;6.806;2024-01-30T08:02:16;5.68;;;2.88;;
39522;SDS011;25202;51.216;6.806;2024-01-30T08:04:42;4.60;;;2.90;;
39522;SDS011;25202;51.216;6.806;2024-01-30T08:07:07;4.47;;;3.00;;
39522;SDS011;25202;51.216;6.806;2024-01-30T08:09:33;7.75;;;3.65;;
39522;SDS011;25202;51.216;6.806;2024-01-30T08:11:58;6.65;;;3.10;;
39522;SDS011;25202;51.216;6.806;2024-01-30T08:14:24;5.47;;;2.72;;
39522;SDS011;25202;51.216;6.806;2024-01-30T08:16:51;5.75;;;3.10;;
39522;SDS011;25202;51.216;6.806;2024-01-30T08:19:16;4.10;;;2.90;;
39522;SDS011;25202;51.216;6.806;2024-01-30T08:21:43;3.58;;;2.72;;
39522;SDS011;25202;51.216;6.806;2024-01-30T08:24:09;5.05;;;2.72;;
39522;SDS011;25202;51.216;6.806;2024-01-30T08:26:35;4.97;;;3.25;;
39522;SDS011;25202;51.216;6.806;2024-01-30T08:29:01;5.88;;;2.90;;
39522;SDS011;25202;51.216;6.806;2024-01-30T08:31:27;5.20;;;2.83;;
39522;SDS011;25202;51.216;6.806;2024-01-30T08:33:52;5.43;;;2.88;;
39522;SDS011;25202;51.216;6.806;2024-01-30T08:36:18;7.43;;;2.88;;
39522;SDS011;25202;51.216;6.806;2024-01-30T08:38:44;5.68;;;3.10;;
39522;SDS011;25202;51.216;6.806;2024-01-30T08:41:10;4.53;;;3.10;;
39522;SDS011;25202;51.216;6.806;2024-01-30T08:43:35;3.92;;;2.92;;
39522;SDS011;25202;51.216;6.806;2024-01-30T08:46:01;5.00;;;3.47;;
39522;SDS011;25202;51.216;6.806;2024-01-30T08:48:27;4.28;;;3.05;;
39522;SDS011;25202;51.216;6.806;2024-01-30T08:50:53;6.80;;;3.42;;
39522;SDS011;25202;51.216;6.806;2024-01-30T08:53:19;3.60;;;2.72;;
39522;SDS011;25202;51.216;6.806;2024-01-30T08:55:44;4.90;;;3.40;;
39522;SDS011;25202;51.216;6.806;2024-01-30T08:58:10;5.18;;;3.75;;
39522;SDS011;25202;51.216;6.806;2024-01-30T09:00:35;16.30;;;5.30;;
39522;SDS011;25202;51.216;6.806;2024-01-30T09:03:01;15.35;;;5.00;;
39522;SDS011;25202;51.216;6.806;2024-01-30T09:05:26;10.20;;;4.07;;
39522;SDS011;25202;51.216;6.806;2024-01-30T09:07:52;6.88;;;3.60;;
39522;SDS011;25202;51.216;6.806;2024-01-30T09:10:17;11.52;;;4.00;;
39522;SDS011;25202;51.216;6.806;2024-01-30T09:12:44;9.48;;;3.70;;
39522;SDS011;25202;51.216;6.806;2024-01-30T09:15:10;8.07;;;4.15;;
39522;SDS011;25202;51.216;6.806;2024-01-30T09:17:36;11.82;;;3.95;;
39522;SDS011;25202;51.216;6.806;2024-01-30T09:20:02;6.78;;;3.90;;
39522;SDS011;25202;51.216;6.806;2024-01-30T09:22:28;6.97;;;3.60;;
39522;SDS011;25202;51.216;6.806;2024-01-30T09:24:53;9.20;;;3.67;;
39522;SDS011;25202;51.216;6.806;2024-01-30T09:27:19;8.20;;;3.47;;
39522;SDS011;25202;51.216;6.806;2024-01-30T09:29:45;10.23;;;3.67;;
39522;SDS011;25202;51.216;6.806;2024-01-30T09:32:10;10.38;;;4.13;;
39522;SDS011;25202;51.216;6.806;2024-01-30T09:34:36;15.43;;;4.30;;
39522;SDS011;25202;51.216;6.806;2024-01-30T09:37:01;7.40;;;3.60;;
39522;SDS011;25202;51.216;6.806;2024-01-30T09:39:27;7.82;;;3.63;;
39522;SDS011;25202;51.216;6.806;2024-01-30T09:42:17;6.13;;;3.65;;
39522;SDS011;25202;51.216;6.806;2024-01-30T09:44:57;10.05;;;3.50;;
39522;SDS011;25202;51.216;6.806;2024-01-30T09:47:23;10.45;;;3.92;;
39522;SDS011;25202;51.216;6.806;2024-01-30T09:49:49;8.23;;;3.90;;
39522;SDS011;25202;51.216;6.806;2024-01-30T09:52:15;8.30;;;4.18;;
39522;SDS011;25202;51.216;6.806;2024-01-30T09:54:41;7.57;;;4.00;;
39522;SDS011;25202;51.216;6.806;2024-01-30T09:57:06;6.47;;;4.05;;
39522;SDS011;25202;51.216;6.806;2024-01-30T09:59:32;139.90;;;19.95;;
39522;SDS011;25202;51.216;6.806;2024-01-30T10:01:58;31.92;;;7.10;;
39522;SDS011;25202;51.216;6.806;2024-01-30T10:04:24;25.33;;;5.85;;
39522;SDS011;25202;51.216;6.806;2024-01-30T10:06:49;16.33;;;6.03;;
39522;SDS011;25202;51.216;6.806;2024-01-30T10:09:15;28.08;;;6.38;;
39522;SDS011;25202;51.216;6.806;2024-01-30T10:11:41;25.15;;;7.80;;
39522;SDS011;25202;51.216;6.806;2024-01-30T10:14:07;26.33;;;7.05;;
39522;SDS011;25202;51.216;6.806;2024-01-30T10:16:34;24.63;;;7.30;;
39522;SDS011;25202;51.216;6.806;2024-01-30T10:18:59;22.50;;;6.65;;
39522;SDS011;25202;51.216;6.806;2024-01-30T10:21:25;24.48;;;6.80;;
39522;SDS011;25202;51.216;6.806;2024-01-30T10:23:51;20.50;;;6.93;;
39522;SDS011;25202;51.216;6.806;2024-01-30T10:26:16;21.73;;;6.68;;
39522;SDS011;25202;51.216;6.806;2024-01-30T10:28:42;24.70;;;6.65;;
39522;SDS011;25202;51.216;6.806;2024-01-30T10:31:08;25.92;;;7.78;;
39522;SDS011;25202;51.216;6.806;2024-01-30T10:33:34;20.40;;;6.20;;
39522;SDS011;25202;51.216;6.806;2024-01-30T10:36:03;23.73;;;6.57;;
39522;SDS011;25202;51.216;6.806;2024-01-30T10:38:30;19.52;;;6.50;;
39522;SDS011;25202;51.216;6.806;2024-01-30T10:40:59;19.80;;;6.72;;
39522;SDS011;25202;51.216;6.806;2024-01-30T10:43:30;21.05;;;6.85;;
39522;SDS011;25202;51.216;6.806;2024-01-30T10:46:21;16.88;;;6.20;;
39522;SDS011;25202;51.216;6.806;2024-01-30T10:48:50;15.95;;;5.80;;
39522;SDS011;25202;51.216;6.806;2024-01-30T10:51:20;19.30;;;6.53;;
39522;SDS011;25202;51.216;6.806;2024-01-30T10:53:47;21.00;;;6.57;;
39522;SDS011;25202;51.216;6.806;2024-01-30T10:56:14;15.63;;;6.32;;
39522;SDS011;25202;51.216;6.806;2024-01-30T10:58:41;18.60;;;6.38;;
39522;SDS011;25202;51.216;6.806;2024-01-30T11:01:07;13.32;;;5.93;;
39522;SDS011;25202;51.216;6.806;2024-01-30T11:03:32;15.60;;;6.40;;
39522;SDS011;25202;51.216;6.806;2024-01-30T11:06:01;14.27;;;5.90;;
39522;SDS011;25202;51.216;6.806;2024-01-30T11:08:27;17.95;;;5.88;;
39522;SDS011;25202;51.216;6.806;2024-01-30T11:10:56;14.30;;;5.93;;
39522;SDS011;25202;51.216;6.806;2024-01-30T11:13:27;13.90;;;6.55;;
39522;SDS011;25202;51.216;6.806;2024-01-30T11:15:54;27.98;;;7.32;;
39522;SDS011;25202;51.216;6.806;2024-01-30T11:18:23;22.55;;;6.22;;
39522;SDS011;25202;51.216;6.806;2024-01-30T11:20:50;24.23;;;6.45;;
39522;SDS011;25202;51.216;6.806;2024-01-30T11:23:16;19.60;;;6.57;;
39522;SDS011;25202;51.216;6.806;2024-01-30T11:25:43;20.00;;;5.80;;
39522;SDS011;25202;51.216;6.806;2024-01-30T11:28:12;18.10;;;5.90;;
39522;SDS011;25202;51.216;6.806;2024-01-30T11:30:41;23.50;;;6.37;;
39522;SDS011;25202;51.216;6.806;2024-01-30T11:33:07;19.23;;;5.93;;
39522;SDS011;25202;51.216;6.806;2024-01-30T11:38:03;18.88;;;5.85;;
39522;SDS011;25202;51.216;6.806;2024-01-30T11:40:29;20.95;;;5.82;;
39522;SDS011;25202;51.216;6.806;2024-01-30T11:42:58;15.27;;;5.78;;
39522;SDS011;25202;51.216;6.806;2024-01-30T11:45:25;19.52;;;5.72;;
39522;SDS011;25202;51.216;6.806;2024-01-30T11:47:51;16.98;;;5.43;;
39522;SDS011;25202;51.216;6.806;2024-01-30T11:50:17;16.45;;;5.35;;
39522;SDS011;25202;51.216;6.806;2024-01-30T11:52:43;10.70;;;4.68;;
39522;SDS011;25202;51.216;6.806;2024-01-30T11:55:09;14.85;;;5.35;;
39522;SDS011;25202;51.216;6.806;2024-01-30T11:57:35;12.50;;;5.22;;
39522;SDS011;25202;51.216;6.806;2024-01-30T12:00:04;12.93;;;4.53;;
39522;SDS011;25202;51.216;6.806;2024-01-30T12:02:38;19.15;;;5.30;;
39522;SDS011;25202;51.216;6.806;2024-01-30T12:05:04;14.63;;;5.28;;
39522;SDS011;25202;51.216;6.806;2024-01-30T12:07:30;17.25;;;5.25;;
39522;SDS011;25202;51.216;6.806;2024-01-30T12:09:56;20.17;;;4.82;;
39522;SDS011;25202;51.216;6.806;2024-01-30T12:12:25;16.67;;;5.25;;
39522;SDS011;25202;51.216;6.806;2024-01-30T12:14:54;13.27;;;4.50;;
39522;SDS011;25202;51.216;6.806;2024-01-30T12:17:26;11.18;;;4.60;;
39522;SDS011;25202;51.216;6.806;2024-01-30T12:20:02;12.60;;;4.57;;
39522;SDS011;25202;51.216;6.806;2024-01-30T12:22:32;10.55;;;4.57;;
39522;SDS011;25202;51.216;6.806;2024-01-30T12:25:02;15.13;;;4.60;;
39522;SDS011;25202;51.216;6.806;2024-01-30T12:27:29;18.75;;;4.93;;
39522;SDS011;25202;51.216;6.806;2024-01-30T12:29:57;20.45;;;5.20;;
39522;SDS011;25202;51.216;6.806;2024-01-30T12:32:23;19.15;;;5.15;;
39522;SDS011;25202;51.216;6.806;2024-01-30T12:34:49;16.13;;;4.72;;
39522;SDS011;25202;51.216;6.806;2024-01-30T12:37:14;11.93;;;4.40;;
39522;SDS011;25202;51.216;6.806;2024-01-30T12:50:42;21.00;;;5.55;;
39522;SDS011;25202;51.216;6.806;2024-01-30T12:53:08;19.17;;;4.60;;
39522;SDS011;25202;51.216;6.806;2024-01-30T12:55:34;18.77;;;4.85;;
39522;SDS011;25202;51.216;6.806;2024-01-30T12:58:00;17.30;;;4.65;;
39522;SDS011;25202;51.216;6.806;2024-01-30T13:00:26;25.80;;;4.55;;
39522;SDS011;25202;51.216;6.806;2024-01-30T13:02:51;15.60;;;4.35;;
39522;SDS011;25202;51.216;6.806;2024-01-30T13:05:17;16.17;;;4.90;;
39522;SDS011;25202;51.216;6.806;2024-01-30T13:07:43;15.50;;;5.13;;
39522;SDS011;25202;51.216;6.806;2024-01-30T13:10:08;14.80;;;4.10;;
39522;SDS011;25202;51.216;6.806;2024-01-30T13:12:34;13.07;;;4.35;;
39522;SDS011;25202;51.216;6.806;2024-01-30T13:15:00;16.60;;;4.97;;
39522;SDS011;25202;51.216;6.806;2024-01-30T13:17:27;15.48;;;4.80;;
39522;SDS011;25202;51.216;6.806;2024-01-30T13:19:52;16.10;;;4.30;;
39522;SDS011;25202;51.216;6.806;2024-01-30T13:22:19;13.63;;;4.15;;
39522;SDS011;25202;51.216;6.806;2024-01-30T13:24:46;8.63;;;3.80;;
39522;SDS011;25202;51.216;6.806;2024-01-30T13:27:12;8.60;;;4.03;;
39522;SDS011;25202;51.216;6.806;2024-01-30T13:29:38;11.75;;;4.25;;
39522;SDS011;25202;51.216;6.806;2024-01-30T13:32:03;12.52;;;4.10;;
39522;SDS011;25202;51.216;6.806;2024-01-30T13:34:29;12.70;;;4.18;;
39522;SDS011;25202;51.216;6.806;2024-01-30T13:36:54;11.38;;;3.70;;
39522;SDS011;25202;51.216;6.806;2024-01-30T13:39:20;12.98;;;3.90;;
39522;SDS011;25202;51.216;6.806;2024-01-30T13:41:46;10.23;;;3.33;;
39522;SDS011;25202;51.216;6.806;2024-01-30T13:44:13;13.38;;;4.22;;
39522;SDS011;25202;51.216;6.806;2024-01-30T13:46:39;8.80;;;3.90;;
39522;SDS011;25202;51.216;6.806;2024-01-30T13:49:04;12.52;;;3.35;;
39522;SDS011;25202;51.216;6.806;2024-01-30T13:51:30;11.02;;;3.88;;
39522;SDS011;25202;51.216;6.806;2024-01-30T13:53:55;12.88;;;4.30;;
39522;SDS011;25202;51.216;6.806;2024-01-30T13:56:21;11.43;;;3.78;;
39522;SDS011;25202;51.216;6.806;2024-01-30T13:58:50;10.95;;;3.58;;
39522;SDS011;25202;51.216;6.806;2024-01-30T14:01:15;12.23;;;3.60;;
39522;SDS011;25202;51.216;6.806;2024-01-30T14:03:41;14.48;;;3.72;;
39522;SDS011;25202;51.216;6.806;2024-01-30T14:06:07;9.07;;;3.53;;
39522;SDS011;25202;51.216;6.806;2024-01-30T14:08:32;9.82;;;3.47;;
39522;SDS011;25202;51.216;6.806;2024-01-30T14:10:58;6.35;;;3.00;;
39522;SDS011;25202;51.216;6.806;2024-01-30T14:13:24;10.07;;;3.15;;
39522;SDS011;25202;51.216;6.806;2024-01-30T14:15:51;6.75;;;3.33;;
39522;SDS011;25202;51.216;6.806;2024-01-30T14:18:17;9.05;;;2.95;;
39522;SDS011;25202;51.216;6.806;2024-01-30T14:20:43;9.73;;;3.97;;
39522;SDS011;25202;51.216;6.806;2024-01-30T14:23:08;9.80;;;3.45;;
39522;SDS011;25202;51.216;6.806;2024-01-30T14:25:34;10.55;;;4.45;;
39522;SDS011;25202;51.216;6.806;2024-01-30T14:28:00;10.02;;;3.45;;
39522;SDS011;25202;51.216;6.806;2024-01-30T14:30:25;13.02;;;3.30;;
39522;SDS011;25202;51.216;6.806;2024-01-30T14:32:51;7.35;;;3.20;;
39522;SDS011;25202;51.216;6.806;2024-01-30T14:35:16;6.85;;;3.25;;
39522;SDS011;25202;51.216;6.806;2024-01-30T14:37:42;15.48;;;3.80;;
39522;SDS011;25202;51.216;6.806;2024-01-30T14:40:08;6.70;;;2.72;;
39522;SDS011;25202;51.216;6.806;2024-01-30T14:42:33;9.18;;;3.42;;
39522;SDS011;25202;51.216;6.806;2024-01-30T14:45:00;6.93;;;3.22;;
39522;SDS011;25202;51.216;6.806;2024-01-30T14:47:25;8.50;;;3.58;;
39522;SDS011;25202;51.216;6.806;2024-01-30T14:49:51;9.82;;;3.30;;